FCBB/BZV METAR and TAF weather

Enter ICAO airport designator
Station Type Date Time Source
FCBB METAR 2021/04/17 02:00 UTC NOAA

FCBB 170200Z 27002KT 9000 SCT020 FEW028CB 23/22 Q1011 NOSIG


Station Type Date Time Source
FCBB Decoded METAR 2021/04/17 02:00 UTC NOAA

Brazzaville / Maya-Maya, Congo, Republic of the (FCBB) 04-15S 015-15E 316M
Apr 16, 2021 - 10:00 PM EDT / 2021.04.17 0200 UTC
Wind: from the W (270 degrees) at 2 MPH (2 KT):0
Visibility: 5 mile(s):0
Sky conditions: partly cloudy
Weather: Cumulonimbus clouds observed
Temperature: 73 F (23 C)
Dew Point: 71 F (22 C)
Relative Humidity: 94%
Pressure (altimeter): 29.85 in. Hg (1011 hPa)
ob: FCBB 170200Z 27002KT 9000 SCT020 FEW028CB 23/22 Q1011 NOSIG
cycle: 2

Station Type Date Time Source
FCBB TAF 2021/04/16 18:03 UTC NOAA

TAF TAF FCBB 161700Z 1618/1724 28005KT 9000 TS FEW020 FEW030CB
BECMG 1621/1623 NSW SCT018 PROB30 1716/1720 FEW020 FEW030CB

Example: see airport list